Time;durP1;ratioP1;P1;durP2;ratioP2;P2;SDS_P1;SDS_P2;PMS_P1;PMS_P2;Temp;Humidity;BMP_temperature;BMP_pressure;BME280_temperature;BME280_humidity;BME280_pressure;Samples;Min_cycle;Max_cycle;Signal;HPM_P1;HPM_P2
2022/01/12 00:02:18;;;;;;;209.77;53.30;;;3.20;99.90;;;;;;6244450;22;20016;-85
2022/01/12 00:05:23;;;;;;;237.27;57.42;;;3.20;99.90;;;;;;6220441;22;20108;-85
2022/01/12 00:11:06;;;;;;;;;;;3.20;99.90;;;;;;6246638;22;20524;-85
2022/01/12 00:13:34;;;;;;;289.58;56.25;;;3.20;99.90;;;;;;6245136;22;19915;-84
2022/01/12 00:16:04;;;;;;;301.05;58.97;;;3.10;99.90;;;;;;6242602;22;20026;-85
2022/01/12 00:18:30;;;;;;;272.77;57.63;;;3.20;99.90;;;;;;6244964;22;20115;-84
2022/01/12 00:20:56;;;;;;;297.90;59.47;;;3.20;99.90;;;;;;6245763;22;20050;-85
2022/01/12 00:23:56;;;;;;;322.20;59.42;;;3.30;99.90;;;;;;6270943;22;20015;-85
2022/01/12 00:35:30;;;;;;;310.27;58.83;;;3.30;99.90;;;;;;6262404;22;20083;-85
2022/01/12 00:37:56;;;;;;;381.67;61.92;;;3.30;99.90;;;;;;6249897;22;20098;-86
2022/01/12 00:40:37;;;;;;;440.70;64.72;;;3.30;99.90;;;;;;6278647;22;20244;-85
2022/01/12 00:43:25;;;;;;;425.95;63.33;;;3.30;99.90;;;;;;6304232;22;20042;-84
2022/01/12 00:45:51;;;;;;;457.30;68.80;;;3.30;99.90;;;;;;6277507;22;20247;-85
2022/01/12 00:48:18;;;;;;;487.33;68.38;;;3.30;99.90;;;;;;6277798;22;20015;-87
2022/01/12 00:50:47;;;;;;;431.05;63.38;;;3.30;99.90;;;;;;6276748;22;20006;-85
2022/01/12 00:53:53;;;;;;;425.05;65.47;;;3.30;99.90;;;;;;6301571;22;20464;-86
2022/01/12 00:56:31;;;;;;;558.75;71.85;;;3.30;99.90;;;;;;6230635;22;20090;-85
2022/01/12 00:58:57;;;;;;;601.75;74.22;;;3.30;99.90;;;;;;6247609;22;20011;-85
2022/01/12 01:01:28;;;;;;;541.30;70.53;;;3.30;99.90;;;;;;6246584;22;20045;-85
2022/01/12 01:04:02;;;;;;;527.25;71.07;;;3.20;99.90;;;;;;6246088;22;20045;-85
2022/01/12 01:06:42;;;;;;;436.00;62.97;;;3.30;99.90;;;;;;6246601;22;20464;-85
2022/01/12 01:09:13;;;;;;;521.33;70.78;;;3.30;99.90;;;;;;6246351;22;20050;-86
2022/01/12 01:11:39;;;;;;;580.80;73.18;;;3.40;99.90;;;;;;6247479;22;20019;-85
2022/01/12 01:25:36;;;;;;;608.40;71.50;;;3.40;99.90;;;;;;6251898;22;20019;-85
2022/01/12 01:28:03;;;;;;;579.10;74.72;;;3.40;99.90;;;;;;6199366;22;20025;-84
2022/01/12 01:30:30;;;;;;;505.30;67.03;;;3.40;99.90;;;;;;6198575;22;20557;-85
2022/01/12 01:33:03;;;;;;;659.42;76.85;;;3.40;99.90;;;;;;6247616;22;20023;-85
2022/01/12 01:35:30;;;;;;;550.75;69.55;;;3.40;99.90;;;;;;6252135;22;20536;-85
2022/01/12 01:37:58;;;;;;;669.00;78.60;;;3.40;99.90;;;;;;6249842;22;20792;-84
2022/01/12 01:40:24;;;;;;;676.50;79.15;;;3.40;99.90;;;;;;6200884;22;20097;-85
2022/01/12 01:53:49;;;;;;;493.75;65.00;;;3.40;99.90;;;;;;6257220;22;20016;-87
2022/01/12 01:56:14;;;;;;;601.17;73.63;;;3.40;99.90;;;;;;6251754;22;20019;-86
2022/01/12 01:58:41;;;;;;;694.13;80.22;;;3.40;99.90;;;;;;6253400;22;20095;-85
2022/01/12 02:01:07;;;;;;;665.10;78.05;;;3.40;99.90;;;;;;6251088;22;20027;-85
2022/01/12 02:03:33;;;;;;;676.83;77.75;;;3.40;99.90;;;;;;6250061;22;20188;-85
2022/01/12 02:05:59;;;;;;;686.33;77.60;;;3.40;99.90;;;;;;6250293;22;20015;-86
2022/01/12 02:08:26;;;;;;;676.17;76.65;;;3.50;99.90;;;;;;6194746;22;20052;-85
2022/01/12 02:10:56;;;;;;;675.33;76.25;;;3.50;99.90;;;;;;6250829;22;20037;-85
2022/01/12 02:13:23;;;;;;;640.53;75.85;;;3.50;99.90;;;;;;6248913;22;20023;-85
2022/01/12 02:15:49;;;;;;;717.42;78.38;;;3.50;99.90;;;;;;6250638;22;20022;-86
2022/01/12 02:18:43;;;;;;;542.35;70.63;;;3.50;99.90;;;;;;6251007;22;20007;-85
2022/01/12 02:35:15;;;;;;;822.03;80.03;;;3.50;99.90;;;;;;6276953;22;20067;-86
2022/01/12 02:40:48;;;;;;;592.22;69.22;;;3.50;99.90;;;;;;6276200;22;20015;-86
2022/01/12 02:51:34;;;;;;;682.08;71.10;;;3.60;99.90;;;;;;6254366;22;20024;-85
2022/01/12 02:54:03;;;;;;;786.72;75.47;;;3.60;99.90;;;;;;6250746;22;20455;-84
2022/01/12 02:56:33;;;;;;;865.45;79.38;;;3.60;99.90;;;;;;6250734;22;20078;-85
2022/01/12 02:59:00;;;;;;;792.42;74.32;;;3.60;99.90;;;;;;6251361;22;20081;-86
2022/01/12 03:04:14;;;;;;;845.08;78.30;;;3.60;99.90;;;;;;6251631;22;20054;-87
2022/01/12 03:06:42;;;;;;;896.28;79.47;;;3.60;99.90;;;;;;6251043;22;20015;-86
2022/01/12 03:09:10;;;;;;;996.85;84.93;;;3.70;99.90;;;;;;6255467;22;20019;-87
2022/01/12 03:11:37;;;;;;;984.85;85.65;;;3.70;99.90;;;;;;6254664;22;20023;-85
2022/01/12 03:14:03;;;;;;;920.97;77.20;;;3.70;99.90;;;;;;6255264;22;20352;-86
2022/01/12 03:16:29;;;;;;;968.13;80.82;;;3.70;99.90;;;;;;6250567;22;20422;-86
2022/01/12 03:18:59;;;;;;;776.75;75.68;;;3.70;99.90;;;;;;6252747;22;20022;-87
2022/01/12 03:21:28;;;;;;;795.83;74.65;;;3.70;99.90;;;;;;6251762;22;20459;-86
2022/01/12 03:23:58;;;;;;;823.03;76.68;;;3.70;99.90;;;;;;6253138;22;20444;-86
2022/01/12 03:26:30;;;;;;;788.42;75.25;;;3.70;99.90;;;;;;6253838;22;20011;-86
2022/01/12 03:28:59;;;;;;;819.67;75.68;;;3.70;99.90;;;;;;6254545;22;20401;-85
2022/01/12 03:31:29;;;;;;;812.95;77.95;;;3.70;99.90;;;;;;6251966;22;20026;-88
2022/01/12 03:34:04;;;;;;;705.83;68.68;;;3.70;99.90;;;;;;6252846;22;20015;-85
2022/01/12 03:36:42;;;;;;;748.10;72.90;;;3.80;99.90;;;;;;6251567;22;20011;-85
2022/01/12 03:39:14;;;;;;;677.53;69.38;;;3.70;99.90;;;;;;6268231;22;20011;-87
2022/01/12 03:41:44;;;;;;;859.40;77.53;;;3.70;99.90;;;;;;6264662;22;20066;-86
2022/01/12 03:44:12;;;;;;;832.67;76.82;;;3.70;99.90;;;;;;6266191;22;20344;-86
2022/01/12 03:46:45;;;;;;;579.60;65.57;;;3.80;99.90;;;;;;6258096;22;20019;-87
2022/01/12 03:49:11;;;;;;;925.53;80.50;;;3.80;99.90;;;;;;6266534;22;20045;-87
2022/01/12 03:51:44;;;;;;;789.20;74.40;;;3.80;99.90;;;;;;6258807;22;20011;-85
2022/01/12 03:54:12;;;;;;;;;;;3.80;99.90;;;;;;6249377;22;20018;-85
2022/01/12 03:56:38;;;;;;;874.63;77.55;;;3.70;99.90;;;;;;6272551;22;20328;-86
2022/01/12 03:59:05;;;;;;;841.53;77.15;;;3.80;99.90;;;;;;6248873;22;20022;-85
2022/01/12 04:01:35;;;;;;;769.25;73.65;;;3.70;99.90;;;;;;6248770;22;20505;-86
2022/01/12 04:04:05;;;;;;;630.80;66.93;;;3.80;99.90;;;;;;6251338;22;20011;-85
2022/01/12 04:09:16;;;;;;;525.95;65.28;;;3.80;99.90;;;;;;6273828;22;20299;-86
2022/01/12 04:11:42;;;;;;;442.90;61.53;;;3.70;99.90;;;;;;6250433;22;20016;-85
2022/01/12 04:14:14;;;;;;;560.60;65.00;;;3.70;99.90;;;;;;6249545;22;20007;-85
2022/01/12 04:16:40;;;;;;;439.67;58.90;;;3.70;99.90;;;;;;6248539;22;20467;-86
2022/01/12 04:19:09;;;;;;;506.58;61.75;;;3.70;99.90;;;;;;6248146;22;20075;-86
2022/01/12 04:21:45;;;;;;;481.90;61.45;;;3.70;99.90;;;;;;6250460;22;20304;-85
2022/01/12 04:24:10;;;;;;;545.00;63.05;;;3.70;99.90;;;;;;6250612;22;20023;-86
2022/01/12 04:26:36;;;;;;;487.75;57.75;;;3.70;99.90;;;;;;6249372;22;20355;-86
2022/01/12 04:29:03;;;;;;;440.80;57.63;;;3.70;99.90;;;;;;6249657;22;20065;-85
2022/01/12 04:31:38;;;;;;;455.33;58.13;;;3.60;99.90;;;;;;6251514;22;20026;-86
2022/01/12 04:34:05;;;;;;;378.25;52.30;;;3.50;99.90;;;;;;6249158;22;20011;-86
2022/01/12 04:36:32;;;;;;;528.75;58.80;;;3.50;99.90;;;;;;6248177;22;20041;-85
2022/01/12 04:39:04;;;;;;;664.38;62.63;;;3.40;99.90;;;;;;6248887;22;20015;-86
2022/01/12 04:41:36;;;;;;;491.92;55.08;;;3.30;99.90;;;;;;6273976;22;20065;-85
2022/01/12 04:44:18;;;;;;;663.33;58.53;;;3.30;99.90;;;;;;6249542;22;20360;-86
2022/01/12 04:47:04;;;;;;;482.30;52.85;;;3.30;99.90;;;;;;6249277;22;20382;-86
2022/01/12 04:52:16;;;;;;;610.22;58.67;;;3.10;99.90;;;;;;6223122;22;20023;-86
2022/01/12 04:54:43;;;;;;;861.45;64.25;;;3.10;99.90;;;;;;6200347;22;20017;-87
2022/01/12 04:57:09;;;;;;;1047.10;69.50;;;3.10;99.90;;;;;;6270274;22;20455;-86
2022/01/12 04:59:40;;;;;;;891.03;61.95;;;3.10;99.90;;;;;;6246681;22;20030;-85
2022/01/12 05:06:24;;;;;;;925.97;63.17;;;3.10;99.90;;;;;;6248964;22;20279;-87
2022/01/12 05:07:58;;;;;;;1071.00;66.38;;;3.00;99.90;;;;;;6231126;22;20019;-86
2022/01/12 05:12:57;;;;;;;859.65;59.70;;;3.00;99.90;;;;;;6250652;22;20075;-85
2022/01/12 05:15:33;;;;;;;837.15;62.00;;;3.00;99.90;;;;;;6253581;22;20082;-85
2022/01/12 05:18:19;;;;;;;730.17;55.20;;;3.00;99.90;;;;;;6255058;22;20015;-85
2022/01/12 05:20:46;;;;;;;852.78;60.75;;;3.00;99.90;;;;;;6252266;22;20015;-86
2022/01/12 05:23:37;;;;;;;876.78;64.63;;;3.00;99.90;;;;;;6251661;22;20053;-86
2022/01/12 05:26:09;;;;;;;956.78;65.32;;;3.00;99.90;;;;;;6258222;22;20015;-85
2022/01/12 05:28:38;;;;;;;844.85;65.03;;;3.00;99.90;;;;;;6253030;22;20066;-86
2022/01/12 05:31:33;;;;;;;823.38;61.92;;;3.00;99.90;;;;;;6251522;22;20063;-84
2022/01/12 05:34:10;;;;;;;846.47;61.90;;;3.00;99.90;;;;;;6251823;22;20022;-84
2022/01/12 05:36:39;;;;;;;855.47;62.88;;;3.00;99.90;;;;;;6251484;22;20476;-85
2022/01/12 05:39:05;;;;;;;845.08;66.85;;;3.10;99.90;;;;;;6244320;22;20045;-86
2022/01/12 05:41:31;;;;;;;848.05;62.90;;;3.00;99.90;;;;;;6195152;22;20015;-86
2022/01/12 05:58:32;;;;;;;571.88;46.95;;;3.10;99.90;;;;;;6087949;23;20022;-86
2022/01/12 06:01:01;;;;;;;702.10;55.35;;;3.10;99.90;;;;;;6039671;23;20073;-85
2022/01/12 06:03:32;;;;;;;583.38;51.75;;;3.10;99.90;;;;;;6060641;23;20024;-84
2022/01/12 06:06:16;;;;;;;602.22;52.42;;;3.10;99.90;;;;;;6211038;23;20512;-87
2022/01/12 06:09:19;;;;;;;670.10;58.00;;;3.10;99.90;;;;;;6188535;23;20367;-85
2022/01/12 06:12:02;;;;;;;;;;;3.10;99.90;;;;;;6162692;23;20016;-86
2022/01/12 06:15:06;;;;;;;606.28;51.53;;;3.10;99.90;;;;;;6187562;23;19919;-86
2022/01/12 06:18:48;;;;;;;;;;;;;;;;;;;;;
2022/01/12 06:26:19;;;;;;;546.65;49.22;;;3.10;99.90;;;;;;5949190;24;20037;-85
2022/01/12 06:40:30;;;;;;;604.92;52.80;;;3.10;99.90;;;;;;6241325;22;20027;-86
2022/01/12 07:03:21;;;;;;;665.05;54.15;;;3.10;99.90;;;;;;5840590;24;20053;-86
2022/01/12 07:06:30;;;;;;;582.55;53.63;;;3.00;99.90;;;;;;5824642;24;20028;-85
2022/01/12 07:09:35;;;;;;;679.00;51.53;;;3.00;99.90;;;;;;5822900;24;20250;-85
2022/01/12 07:12:26;;;;;;;474.42;44.13;;;2.90;99.90;;;;;;5871799;23;20034;-84
2022/01/12 07:15:03;;;;;;;598.50;50.15;;;2.90;99.90;;;;;;6054898;22;20049;-83
2022/01/12 07:17:32;;;;;;;491.88;47.22;;;2.90;99.90;;;;;;6222063;22;20039;-83
2022/01/12 07:24:24;;;;;;;689.15;51.60;;;2.90;99.90;;;;;;6161786;23;20112;-83
2022/01/12 07:33:56;;;;;;;472.13;42.88;;;2.80;99.90;;;;;;6137123;23;20022;-83
2022/01/12 07:36:24;;;;;;;477.15;43.15;;;2.80;99.90;;;;;;6140365;23;20025;-85
2022/01/12 07:39:35;;;;;;;488.95;45.28;;;2.80;99.90;;;;;;6118356;23;20001;-85
2022/01/12 07:42:09;;;;;;;435.15;42.30;;;2.80;99.90;;;;;;6144081;23;20021;-86
2022/01/12 07:44:47;;;;;;;384.95;41.35;;;2.80;99.90;;;;;;6146670;23;20044;-84
2022/01/12 07:47:35;;;;;;;460.05;45.10;;;2.80;99.90;;;;;;6128082;23;20014;-85
2022/01/12 07:50:58;;;;;;;324.10;37.25;;;2.70;99.90;;;;;;6117793;23;20026;-85
2022/01/12 07:53:47;;;;;;;339.65;38.45;;;2.80;99.90;;;;;;6118104;23;20018;-84
2022/01/12 07:57:12;;;;;;;450.73;41.85;;;2.80;99.90;;;;;;6161252;23;20023;-86
2022/01/12 08:00:35;;;;;;;;;;;;;;;;;;;;;
2022/01/12 08:32:28;;;;;;;260.15;37.40;;;2.80;99.90;;;;;;6259513;22;20559;-87
2022/01/12 08:35:56;;;;;;;309.77;35.17;;;2.90;99.90;;;;;;6212046;23;20070;-85
2022/01/12 08:38:25;;;;;;;374.03;35.07;;;2.90;99.90;;;;;;6209159;23;20081;-86
2022/01/12 08:41:05;;;;;;;445.50;39.85;;;2.80;99.90;;;;;;6210540;23;20350;-86
2022/01/12 08:43:35;;;;;;;373.60;39.00;;;2.90;99.90;;;;;;6205587;22;20336;-86
2022/01/12 08:46:04;;;;;;;371.50;37.45;;;2.90;99.90;;;;;;6210983;23;20015;-86
2022/01/12 08:48:29;;;;;;;464.05;44.25;;;3.00;99.90;;;;;;6208705;23;20045;-86
2022/01/12 08:50:55;;;;;;;326.58;38.15;;;3.00;99.90;;;;;;6209664;23;20832;-86
2022/01/12 08:53:24;;;;;;;320.33;38.58;;;3.10;99.90;;;;;;6209360;23;20020;-86
2022/01/12 08:55:59;;;;;;;289.30;37.90;;;3.10;99.90;;;;;;6209385;23;20022;-86
2022/01/12 08:58:30;;;;;;;284.77;37.33;;;3.20;99.90;;;;;;6208798;23;20023;-86
2022/01/12 09:01:11;;;;;;;322.67;38.88;;;3.20;99.90;;;;;;6211665;23;20016;-86
2022/01/12 09:03:38;;;;;;;300.48;39.05;;;3.30;99.90;;;;;;6159040;23;20385;-86
2022/01/12 09:06:05;;;;;;;300.33;37.75;;;3.30;99.90;;;;;;6209653;23;20062;-86
2022/01/12 09:08:34;;;;;;;351.00;40.67;;;3.30;99.90;;;;;;6208973;23;20280;-86
2022/01/12 09:12:00;;;;;;;401.60;41.80;;;3.40;99.90;;;;;;6209362;22;20016;-86
2022/01/12 09:15:11;;;;;;;391.67;41.40;;;3.50;99.90;;;;;;6115559;23;20379;-85
2022/01/12 09:23:13;;;;;;;347.45;39.03;;;3.60;99.90;;;;;;6265241;22;20367;-86
2022/01/12 09:25:39;;;;;;;459.95;42.35;;;3.60;99.90;;;;;;6238272;22;20023;-86
2022/01/12 09:28:40;;;;;;;395.17;39.70;;;3.70;99.90;;;;;;6238866;22;20011;-86
2022/01/12 09:31:42;;;;;;;343.63;41.80;;;3.80;99.90;;;;;;6179490;23;20016;-85
2022/01/12 09:34:15;;;;;;;496.90;44.13;;;3.90;99.90;;;;;;6232522;23;20401;-86
2022/01/12 09:36:53;;;;;;;345.85;35.85;;;3.90;99.90;;;;;;6180301;23;20051;-86
2022/01/12 09:39:42;;;;;;;357.90;39.83;;;4.00;99.90;;;;;;6231595;23;20222;-86
2022/01/12 09:42:16;;;;;;;423.52;36.30;;;4.10;99.90;;;;;;6177299;23;20012;-86
2022/01/12 09:44:47;;;;;;;394.58;36.00;;;4.20;99.90;;;;;;6180691;23;20012;-86
2022/01/12 09:47:21;;;;;;;424.27;34.70;;;4.20;99.90;;;;;;6231693;23;20460;-86
2022/01/12 09:49:50;;;;;;;421.88;37.17;;;4.20;99.90;;;;;;6230319;23;20094;-87
2022/01/12 09:55:50;;;;;;;307.67;30.33;;;4.40;99.90;;;;;;6243667;22;20018;-86
2022/01/12 09:58:23;;;;;;;204.98;27.42;;;4.50;99.90;;;;;;6235329;22;20197;-88
2022/01/12 10:01:04;;;;;;;;;;;4.50;99.90;;;;;;6237922;22;20012;-87
2022/01/12 10:04:23;;;;;;;;;;;;;;;;;;;;;
2022/01/12 10:10:18;;;;;;;;;;;4.70;99.90;;;;;;6095895;23;20021;-87
2022/01/12 10:17:27;;;;;;;174.38;24.90;;;4.80;99.90;;;;;;6264879;22;20023;-88
2022/01/12 10:20:38;;;;;;;187.80;23.17;;;4.90;99.90;;;;;;6241123;22;20019;-87
2022/01/12 10:23:40;;;;;;;190.15;24.10;;;5.10;99.90;;;;;;6122212;23;20021;-87
2022/01/12 10:26:15;;;;;;;175.70;22.38;;;5.10;99.90;;;;;;6189524;22;20042;-87
2022/01/12 10:32:29;;;;;;;146.68;18.90;;;5.20;99.90;;;;;;6223514;23;20036;-86
2022/01/12 10:35:55;;;;;;;160.95;20.48;;;5.20;99.90;;;;;;6232780;22;20469;-85
2022/01/12 10:42:03;;;;;;;160.73;17.70;;;5.30;99.90;;;;;;6101528;23;20100;-87
2022/01/12 10:44:56;;;;;;;139.45;16.58;;;5.30;99.90;;;;;;6104470;22;20027;-84
2022/01/12 10:48:30;;;;;;;;;;;;;;;;;;;;;
2022/01/12 10:51:52;;;;;;;147.52;16.17;;;5.20;99.90;;;;;;6140655;23;20079;-84
2022/01/12 10:54:41;;;;;;;155.02;16.75;;;5.30;99.90;;;;;;6111770;23;20016;-85
2022/01/12 10:57:37;;;;;;;124.30;14.52;;;5.30;99.90;;;;;;6153104;23;20095;-85
2022/01/12 11:00:26;;;;;;;128.23;14.95;;;5.30;99.90;;;;;;6033013;23;20022;-85
2022/01/12 11:03:41;;;;;;;106.45;12.25;;;5.40;99.90;;;;;;6040672;23;20030;-84
2022/01/12 11:09:19;;;;;;;144.55;13.98;;;5.40;99.90;;;;;;6203506;22;20024;-85
2022/01/12 11:16:10;;;;;;;137.07;15.32;;;5.50;99.90;;;;;;6176307;22;20047;-83
2022/01/12 11:26:22;;;;;;;81.30;13.50;;;5.50;99.90;;;;;;6097356;23;20022;-84
2022/01/12 11:30:05;;;;;;;;;;;;;;;;;;;;;
2022/01/12 11:36:50;;;;;;;105.88;11.98;;;5.50;99.90;;;;;;5963223;23;20564;-87
2022/01/12 11:39:26;;;;;;;109.47;13.38;;;5.50;99.90;;;;;;5971811;23;20594;-86
2022/01/12 11:42:38;;;;;;;130.02;14.43;;;5.50;99.90;;;;;;5989120;23;20433;-87
2022/01/12 11:46:09;;;;;;;;;;;;;;;;;;;;;
2022/01/12 11:49:16;;;;;;;123.90;14.52;;;5.40;99.90;;;;;;5974857;23;20023;-87
2022/01/12 11:57:59;;;;;;;98.93;14.55;;;5.40;99.90;;;;;;6235542;22;20346;-85
2022/01/12 12:17:45;;;;;;;88.72;14.55;;;5.50;99.90;;;;;;6241480;22;20184;-85
2022/01/12 12:20:50;;;;;;;74.55;12.95;;;5.40;99.90;;;;;;6125502;23;20028;-85
2022/01/12 12:24:09;;;;;;;68.32;13.15;;;5.40;99.90;;;;;;6158822;23;20020;-87
2022/01/12 12:48:58;;;;;;;55.03;11.77;;;5.80;99.90;;;;;;6193226;23;20449;-87
2022/01/12 12:51:42;;;;;;;53.03;12.80;;;5.80;99.90;;;;;;6169172;23;20040;-87
2022/01/12 12:54:49;;;;;;;56.85;13.05;;;5.90;99.90;;;;;;6144262;23;20478;-86
2022/01/12 12:57:38;;;;;;;53.55;11.38;;;5.90;99.90;;;;;;6137441;23;20492;-87
2022/01/12 13:00:30;;;;;;;54.33;11.93;;;5.90;99.90;;;;;;6119593;23;20014;-88
2022/01/12 13:03:43;;;;;;;50.70;11.48;;;5.90;99.90;;;;;;6144233;23;20013;-86
2022/01/12 13:06:48;;;;;;;57.10;12.23;;;5.90;99.90;;;;;;6118934;23;20024;-87
2022/01/12 13:09:18;;;;;;;55.55;13.20;;;5.90;99.90;;;;;;6057707;23;20024;-87
2022/01/12 13:12:23;;;;;;;47.40;12.45;;;6.00;99.90;;;;;;6139702;23;20126;-86
2022/01/12 13:18:23;;;;;;;63.15;13.82;;;6.00;99.90;;;;;;6140830;23;20437;-87
2022/01/12 13:25:38;;;;;;;51.22;12.55;;;6.10;99.90;;;;;;6134745;22;20130;-85
2022/01/12 13:28:20;;;;;;;65.10;13.52;;;6.10;99.90;;;;;;6178849;23;20012;-84
2022/01/12 13:38:42;;;;;;;58.53;13.65;;;6.00;99.90;;;;;;5963521;24;20020;-87
2022/01/12 13:42:04;;;;;;;;;;;;;;;;;;;;;
2022/01/12 13:45:20;;;;;;;64.75;13.63;;;5.90;99.90;;;;;;5997483;23;20277;-87
2022/01/12 13:48:16;;;;;;;60.60;13.55;;;5.90;99.90;;;;;;5974615;23;20551;-87
2022/01/12 13:51:50;;;;;;;56.13;14.75;;;5.90;99.90;;;;;;6078714;23;20026;-86
2022/01/12 13:54:48;;;;;;;63.08;16.48;;;5.90;99.90;;;;;;6029913;23;20014;-87
2022/01/12 13:58:31;;;;;;;65.22;16.88;;;5.90;99.90;;;;;;6061171;23;20022;-87
2022/01/12 14:02:19;;;;;;;55.08;15.52;;;5.90;99.90;;;;;;6078470;23;20231;-88
2022/01/12 14:34:24;;;;;;;42.95;12.50;;;5.30;99.90;;;;;;6091808;23;20181;-85
2022/01/12 16:00:22;;;;;;;;;;;;;;;;;;;;;
2022/01/12 16:03:37;;;;;;;77.65;18.15;;;4.70;99.90;;;;;;6112518;23;20108;-88
2022/01/12 16:07:00;;;;;;;67.22;17.88;;;4.70;99.90;;;;;;6224045;23;20256;-87
2022/01/12 16:10:14;;;;;;;57.42;15.60;;;4.70;99.90;;;;;;6125176;23;20013;-87
2022/01/12 16:13:12;;;;;;;62.25;17.08;;;4.60;99.90;;;;;;6123700;23;20017;-87
2022/01/12 16:16:40;;;;;;;60.58;15.60;;;4.60;99.90;;;;;;6213210;23;20019;-90
2022/01/12 16:23:38;;;;;;;66.05;16.10;;;4.60;99.90;;;;;;6179698;23;20284;-88
2022/01/12 16:26:05;;;;;;;64.50;15.63;;;4.50;99.90;;;;;;6203403;23;20103;-89
2022/01/12 16:31:40;;;;;;;77.55;18.20;;;4.50;99.90;;;;;;6205167;23;20017;-87
2022/01/12 16:34:08;;;;;;;82.40;18.00;;;4.50;99.90;;;;;;6179456;23;20016;-88
2022/01/12 16:36:35;;;;;;;78.75;17.55;;;4.50;99.90;;;;;;6177362;23;20111;-89
2022/01/12 16:39:07;;;;;;;75.85;17.92;;;4.50;99.90;;;;;;6177650;23;20446;-87
2022/01/12 16:41:33;;;;;;;62.63;16.60;;;4.50;99.90;;;;;;6179065;23;20020;-87
2022/01/12 16:44:02;;;;;;;73.53;17.25;;;4.50;99.90;;;;;;6202969;23;20466;-88
2022/01/12 16:46:28;;;;;;;77.45;19.25;;;4.50;99.90;;;;;;6179810;23;20106;-89
2022/01/12 16:48:55;;;;;;;84.30;18.35;;;4.50;99.90;;;;;;6178263;23;20248;-88
2022/01/12 16:51:24;;;;;;;106.85;19.27;;;4.50;99.90;;;;;;6203062;23;20442;-88
2022/01/12 16:53:54;;;;;;;107.75;19.60;;;4.50;99.90;;;;;;6176617;23;20208;-88
2022/01/12 16:57:25;;;;;;;;;;;;;;;;;;;;;
2022/01/12 17:00:06;;;;;;;110.93;20.17;;;4.50;99.90;;;;;;6174215;23;20031;-85
2022/01/12 17:02:38;;;;;;;127.53;21.23;;;4.50;99.90;;;;;;6200389;23;20020;-86
2022/01/12 17:10:28;;;;;;;138.75;23.27;;;4.60;99.90;;;;;;6252071;22;20023;-85
2022/01/12 17:14:01;;;;;;;140.35;23.50;;;4.60;99.90;;;;;;6239267;22;20133;-88
2022/01/12 17:16:33;;;;;;;138.80;22.50;;;4.60;99.90;;;;;;6146679;23;20513;-87
2022/01/12 17:19:10;;;;;;;132.13;23.48;;;4.60;99.90;;;;;;6177417;23;20020;-88
2022/01/12 17:21:36;;;;;;;142.23;24.23;;;4.70;99.90;;;;;;6176212;23;20384;-88
2022/01/12 17:25:01;;;;;;;129.85;24.05;;;4.70;99.90;;;;;;6177520;23;20098;-87
2022/01/12 17:27:41;;;;;;;;;;;;;;;;;;;;;
2022/01/12 17:30:19;;;;;;;126.95;24.17;;;4.70;99.90;;;;;;6205437;23;20023;-88
2022/01/12 17:33:24;;;;;;;124.75;25.13;;;4.80;99.90;;;;;;6183339;23;20481;-90
2022/01/12 17:35:56;;;;;;;124.40;24.60;;;4.80;99.90;;;;;;6185747;23;20332;-88
2022/01/12 17:38:22;;;;;;;120.78;24.45;;;4.80;99.90;;;;;;6182156;23;20564;-87
2022/01/12 17:40:51;;;;;;;129.13;24.48;;;4.80;99.90;;;;;;6182463;23;20468;-87
2022/01/12 17:43:21;;;;;;;123.82;24.35;;;4.90;99.90;;;;;;6181780;23;20023;-86
2022/01/12 17:45:57;;;;;;;134.63;25.15;;;4.90;99.90;;;;;;6183244;23;20020;-87
2022/01/12 17:48:36;;;;;;;123.18;24.17;;;4.90;99.90;;;;;;6183159;23;20373;-88
2022/01/12 17:51:11;;;;;;;125.32;23.58;;;4.90;99.90;;;;;;6186893;23;20023;-87
2022/01/12 17:53:37;;;;;;;130.85;25.67;;;4.90;99.90;;;;;;6184507;23;20020;-88
2022/01/12 17:56:05;;;;;;;132.48;25.63;;;4.90;99.90;;;;;;6184588;23;20095;-87
2022/01/12 17:58:31;;;;;;;135.82;26.55;;;4.90;99.90;;;;;;6184743;23;20015;-88
2022/01/12 18:00:58;;;;;;;133.25;26.25;;;4.90;99.90;;;;;;6183850;23;20472;-89
2022/01/12 18:03:26;;;;;;;133.20;25.38;;;4.90;99.90;;;;;;6179647;23;20012;-86
2022/01/12 18:05:52;;;;;;;140.50;26.90;;;4.90;99.90;;;;;;6184045;23;20065;-88
2022/01/12 18:08:30;;;;;;;155.40;25.90;;;4.90;99.90;;;;;;6133889;23;20102;-87
2022/01/12 18:11:10;;;;;;;151.32;27.58;;;5.00;99.90;;;;;;6183807;23;20019;-86
2022/01/12 18:13:40;;;;;;;164.05;28.48;;;4.90;99.90;;;;;;6184097;23;20114;-89
2022/01/12 18:16:15;;;;;;;190.02;30.00;;;4.90;99.90;;;;;;6207984;23;20012;-85
2022/01/12 18:19:22;;;;;;;184.45;30.27;;;4.90;99.90;;;;;;6137368;23;20013;-87
2022/01/12 18:26:15;;;;;;;117.53;24.50;;;4.90;99.90;;;;;;6080618;23;20019;-86
2022/01/12 18:29:17;;;;;;;163.68;27.65;;;4.90;99.90;;;;;;6184017;23;20019;-87
2022/01/12 18:31:47;;;;;;;151.38;26.38;;;5.00;99.90;;;;;;6184631;23;20016;-87
2022/01/12 18:43:54;;;;;;;164.38;28.55;;;4.90;99.90;;;;;;6246942;22;20121;-87
2022/01/12 18:50:22;;;;;;;165.52;29.33;;;4.80;99.90;;;;;;6236803;22;20023;-88
2022/01/12 18:57:14;;;;;;;208.00;30.58;;;4.80;99.90;;;;;;6135590;23;20021;-87
2022/01/12 19:00:12;;;;;;;235.40;32.80;;;4.80;99.90;;;;;;6139370;23;20042;-86
2022/01/12 19:02:41;;;;;;;257.67;34.13;;;4.80;99.90;;;;;;6047634;23;20640;-87
2022/01/12 19:08:20;;;;;;;287.95;34.72;;;4.80;99.90;;;;;;6108253;23;20029;-89
2022/01/12 19:10:51;;;;;;;311.65;35.75;;;4.80;99.90;;;;;;6033856;23;20022;-87
2022/01/12 19:13:17;;;;;;;302.52;37.50;;;4.80;99.90;;;;;;6137542;23;20024;-87
2022/01/12 19:15:53;;;;;;;301.33;37.70;;;4.80;99.90;;;;;;6123393;23;20013;-85
2022/01/12 19:18:18;;;;;;;364.92;39.88;;;4.80;99.90;;;;;;6120978;23;20488;-87
2022/01/12 19:20:44;;;;;;;334.23;38.97;;;4.80;99.90;;;;;;6148114;23;20013;-86
2022/01/12 19:23:10;;;;;;;383.35;40.70;;;4.80;99.90;;;;;;6125122;23;20016;-87
2022/01/12 19:25:36;;;;;;;422.90;41.88;;;4.80;99.90;;;;;;6123532;23;20084;-86
2022/01/12 19:28:02;;;;;;;414.65;41.55;;;4.70;99.90;;;;;;6122389;23;20589;-87
2022/01/12 19:30:28;;;;;;;467.23;42.80;;;4.70;99.90;;;;;;6148223;23;20017;-87
2022/01/12 19:32:54;;;;;;;462.40;42.60;;;4.70;99.90;;;;;;6120858;23;20306;-89
2022/01/12 19:35:20;;;;;;;477.23;43.03;;;4.70;99.90;;;;;;6172396;23;20747;-88
2022/01/12 19:37:45;;;;;;;443.63;41.75;;;4.70;99.90;;;;;;6122438;23;20095;-87
2022/01/12 19:40:13;;;;;;;497.65;43.55;;;4.70;99.90;;;;;;6130083;23;20488;-87
2022/01/12 19:42:39;;;;;;;480.58;44.25;;;4.70;99.90;;;;;;6177809;23;20501;-88
2022/01/12 19:45:17;;;;;;;422.42;39.45;;;4.70;99.90;;;;;;6178638;23;20035;-87
2022/01/12 19:47:44;;;;;;;449.92;41.88;;;4.70;99.90;;;;;;6180463;23;20020;-88
2022/01/12 19:50:32;;;;;;;476.15;42.40;;;4.70;99.90;;;;;;6179222;23;20025;-86
2022/01/12 19:53:29;;;;;;;511.70;44.63;;;4.70;99.90;;;;;;6179512;23;20323;-87
2022/01/12 19:55:58;;;;;;;547.63;44.22;;;4.70;99.90;;;;;;6178738;23;20016;-87
2022/01/12 19:58:28;;;;;;;454.35;42.95;;;4.70;99.90;;;;;;6204926;23;20355;-88
2022/01/12 20:01:02;;;;;;;523.40;44.25;;;4.70;99.90;;;;;;6205731;23;20013;-87
2022/01/12 20:03:37;;;;;;;514.88;44.28;;;4.70;99.90;;;;;;6204222;23;20027;-87
2022/01/12 20:06:03;;;;;;;508.05;45.42;;;4.70;99.90;;;;;;6204294;23;20024;-88
2022/01/12 20:08:45;;;;;;;481.73;46.03;;;4.70;99.90;;;;;;6178385;23;20035;-86
2022/01/12 20:11:24;;;;;;;444.57;44.23;;;4.70;99.90;;;;;;6204632;23;20454;-87
2022/01/12 20:13:52;;;;;;;425.60;44.70;;;4.70;99.90;;;;;;6216363;23;20270;-87
2022/01/12 20:16:26;;;;;;;444.58;43.63;;;4.70;99.90;;;;;;6188722;23;20016;-87
2022/01/12 20:22:02;;;;;;;450.95;46.65;;;4.70;99.90;;;;;;6194943;23;20315;-87
2022/01/12 20:24:34;;;;;;;485.95;46.40;;;4.70;99.90;;;;;;6180232;23;20016;-88
2022/01/12 20:27:12;;;;;;;510.73;51.10;;;4.70;99.90;;;;;;6204656;23;20520;-87
2022/01/12 20:29:43;;;;;;;494.88;49.90;;;4.70;99.90;;;;;;6205262;23;20449;-86
2022/01/12 20:32:14;;;;;;;516.58;50.85;;;4.70;99.90;;;;;;6204975;23;20465;-87
2022/01/12 20:35:12;;;;;;;473.98;50.50;;;4.70;99.90;;;;;;6203145;23;20023;-87
2022/01/12 20:37:40;;;;;;;514.38;50.63;;;4.70;99.90;;;;;;6204158;23;20083;-86
2022/01/12 20:40:15;;;;;;;500.48;50.47;;;4.70;99.90;;;;;;6206584;23;20083;-87
2022/01/12 20:42:52;;;;;;;501.48;51.47;;;4.70;99.90;;;;;;6235774;23;20364;-88
2022/01/12 20:45:49;;;;;;;448.42;50.55;;;4.70;99.90;;;;;;6211109;23;20069;-88
2022/01/12 21:04:18;;;;;;;462.60;52.38;;;4.70;99.90;;;;;;6197960;23;20039;-87
2022/01/12 21:07:26;;;;;;;417.45;48.50;;;4.70;99.90;;;;;;6177140;23;20048;-88